Time;durP1;ratioP1;P1;durP2;ratioP2;P2;SDS_P1;SDS_P2;PMS_P1;PMS_P2;Temp;Humidity;BMP_temperature;BMP_pressure;BME280_temperature;BME280_humidity;BME280_pressure;Samples;Min_cycle;Max_cycle;Signal;HPM_P1;HPM_P2
2022/10/19 00:01:15;;;;;;;12.43;2.90;;;11.10;99.90;;;;;;5049771;28;20597;-88
2022/10/19 00:03:45;;;;;;;11.50;2.70;;;11.00;99.90;;;;;;5053355;28;20219;-88
2022/10/19 00:06:14;;;;;;;7.00;2.20;;;10.90;99.90;;;;;;5041833;28;20684;-87
2022/10/19 00:08:41;;;;;;;10.17;2.90;;;10.80;99.90;;;;;;5049983;28;20195;-87
2022/10/19 00:11:08;;;;;;;5.63;2.67;;;10.70;99.90;;;;;;5053618;28;20223;-88
2022/10/19 00:13:35;;;;;;;5.60;2.57;;;10.40;99.90;;;;;;5052843;28;20226;-87
2022/10/19 00:16:06;;;;;;;5.17;2.50;;;10.40;99.90;;;;;;5052901;28;20195;-87
2022/10/19 00:18:33;;;;;;;6.83;2.40;;;10.30;99.90;;;;;;5052817;28;20514;-88
2022/10/19 00:21:04;;;;;;;4.87;2.67;;;10.40;99.90;;;;;;5051388;28;20209;-87
2022/10/19 00:23:32;;;;;;;9.70;2.93;;;10.10;99.90;;;;;;5038750;28;20230;-88
2022/10/19 00:25:59;;;;;;;9.80;2.93;;;10.20;99.90;;;;;;5038471;28;20204;-88
2022/10/19 00:28:26;;;;;;;6.03;2.90;;;10.20;99.90;;;;;;5053204;28;20191;-88
2022/10/19 00:30:53;;;;;;;8.57;3.13;;;10.20;99.90;;;;;;5049493;28;20689;-88
2022/10/19 00:33:21;;;;;;;7.50;3.00;;;10.20;99.90;;;;;;5046347;28;20691;-88
2022/10/19 00:35:48;;;;;;;5.97;2.90;;;10.30;99.90;;;;;;5052674;28;20270;-88
2022/10/19 00:38:17;;;;;;;6.50;2.67;;;10.10;99.90;;;;;;5048868;28;20264;-88
2022/10/19 00:40:44;;;;;;;7.40;2.90;;;10.00;99.90;;;;;;5053773;28;20203;-88
2022/10/19 00:43:15;;;;;;;11.00;3.57;;;10.10;99.90;;;;;;5050190;28;20668;-88
2022/10/19 00:45:42;;;;;;;7.83;3.30;;;10.20;99.90;;;;;;5052443;28;20195;-88
2022/10/19 00:48:10;;;;;;;8.00;3.03;;;10.20;99.90;;;;;;5045445;28;20207;-87
2022/10/19 00:50:38;;;;;;;8.23;3.83;;;10.20;99.90;;;;;;5053057;28;20191;-88
2022/10/19 00:53:05;;;;;;;8.80;3.60;;;10.20;99.90;;;;;;5035772;28;20227;-88
2022/10/19 00:55:33;;;;;;;9.80;3.43;;;10.30;99.90;;;;;;5053387;28;20219;-88
2022/10/19 00:58:02;;;;;;;11.40;3.57;;;10.30;99.90;;;;;;5050008;28;20568;-88
2022/10/19 01:00:29;;;;;;;9.30;3.57;;;10.30;99.90;;;;;;5038363;28;20208;-87
2022/10/19 01:02:57;;;;;;;12.03;3.30;;;10.40;99.90;;;;;;5051017;28;20212;-88
2022/10/19 01:05:25;;;;;;;8.73;3.40;;;10.50;99.90;;;;;;5040362;28;20223;-88
2022/10/19 01:07:52;;;;;;;6.83;2.87;;;10.40;99.90;;;;;;5048739;28;20203;-88
2022/10/19 01:10:25;;;;;;;10.70;3.10;;;10.30;99.90;;;;;;5051574;28;20209;-88
2022/10/19 01:13:07;;;;;;;7.70;3.30;;;10.60;99.90;;;;;;5052347;28;20198;-88
2022/10/19 01:15:41;;;;;;;11.63;3.23;;;10.40;99.90;;;;;;5050333;28;20223;-88
2022/10/19 01:18:18;;;;;;;8.20;2.90;;;10.40;99.90;;;;;;5051231;28;20209;-88
2022/10/19 01:21:22;;;;;;;5.60;3.40;;;10.40;99.90;;;;;;5048638;28;20195;-88
2022/10/19 01:24:23;;;;;;;12.87;3.70;;;10.40;99.90;;;;;;5046378;28;20232;-88
2022/10/19 01:27:22;;;;;;;11.03;4.00;;;10.30;99.90;;;;;;5055555;28;20214;-87
2022/10/19 01:29:58;;;;;;;9.97;3.53;;;10.30;99.90;;;;;;5041921;28;20582;-87
2022/10/19 01:32:32;;;;;;;11.40;3.60;;;10.50;99.90;;;;;;5042894;28;20656;-88
2022/10/19 01:35:07;;;;;;;10.57;3.77;;;10.50;99.90;;;;;;5050983;28;20229;-88
2022/10/19 01:37:38;;;;;;;11.10;4.20;;;10.50;99.90;;;;;;5037529;28;20201;-88
2022/10/19 01:40:10;;;;;;;6.97;3.53;;;10.50;99.90;;;;;;5042093;28;20210;-88
2022/10/19 01:42:44;;;;;;;8.57;3.50;;;10.50;99.90;;;;;;5052611;28;20213;-87
2022/10/19 01:45:17;;;;;;;11.63;4.43;;;10.40;99.90;;;;;;5044951;28;20224;-87
2022/10/19 01:47:49;;;;;;;11.43;4.17;;;10.40;99.90;;;;;;5049891;28;20191;-87
2022/10/19 01:50:21;;;;;;;7.70;3.30;;;10.40;99.90;;;;;;5050693;28;20207;-87
2022/10/19 01:52:49;;;;;;;9.17;3.17;;;10.40;99.90;;;;;;5047274;28;20209;-88
2022/10/19 01:55:18;;;;;;;7.70;3.70;;;10.40;99.90;;;;;;5050600;28;20231;-87
2022/10/19 01:57:47;;;;;;;9.13;3.70;;;10.40;99.90;;;;;;5051183;28;20664;-88
2022/10/19 02:00:17;;;;;;;8.10;3.20;;;10.40;99.90;;;;;;5045656;28;20660;-87
2022/10/19 02:02:47;;;;;;;8.40;3.93;;;10.40;99.90;;;;;;5051902;28;20202;-88
2022/10/19 02:05:16;;;;;;;9.07;2.97;;;10.40;99.90;;;;;;5044124;28;20597;-87
2022/10/19 02:07:48;;;;;;;10.17;3.40;;;10.30;99.90;;;;;;5040996;28;20188;-89
2022/10/19 02:10:15;;;;;;;6.63;3.57;;;10.30;99.90;;;;;;5044451;28;20333;-90
2022/10/19 02:12:43;;;;;;;7.63;3.10;;;10.40;99.90;;;;;;5041228;28;20207;-89
2022/10/19 02:15:14;;;;;;;8.37;3.40;;;10.30;99.90;;;;;;5047462;28;20234;-89
2022/10/19 02:17:47;;;;;;;6.67;3.30;;;10.30;99.90;;;;;;5043795;28;20207;-91
2022/10/19 02:20:14;;;;;;;10.27;3.37;;;10.30;99.90;;;;;;5051179;28;20211;-90
2022/10/19 02:22:42;;;;;;;8.63;3.77;;;10.30;99.90;;;;;;5050828;28;20199;-90
2022/10/19 02:25:10;;;;;;;5.67;3.23;;;10.30;99.90;;;;;;5048940;28;20222;-89
2022/10/19 02:27:40;;;;;;;6.80;3.07;;;10.30;99.90;;;;;;5045377;28;20198;-89
2022/10/19 02:30:08;;;;;;;7.70;3.37;;;10.40;99.90;;;;;;5049381;28;20206;-89
2022/10/19 02:32:35;;;;;;;11.00;3.63;;;10.40;99.90;;;;;;5046742;28;20302;-89
2022/10/19 02:35:04;;;;;;;11.00;4.37;;;10.40;99.90;;;;;;5050860;28;20310;-90
2022/10/19 02:37:31;;;;;;;9.80;3.93;;;10.40;99.90;;;;;;5050611;28;20679;-90
2022/10/19 02:39:58;;;;;;;10.33;3.90;;;10.50;99.90;;;;;;5050862;28;20199;-91
2022/10/19 02:42:29;;;;;;;9.90;3.90;;;10.40;99.90;;;;;;5044953;28;20238;-89
2022/10/19 02:45:00;;;;;;;5.20;3.20;;;10.40;99.90;;;;;;5044327;28;20215;-89
2022/10/19 02:47:31;;;;;;;7.33;4.17;;;10.30;99.90;;;;;;5050128;28;20213;-90
2022/10/19 02:49:58;;;;;;;9.00;4.00;;;10.50;99.90;;;;;;5048457;28;20198;-89
2022/10/19 02:52:26;;;;;;;17.80;4.80;;;10.50;99.90;;;;;;5047546;28;20695;-87
2022/10/19 02:54:53;;;;;;;12.00;4.43;;;10.40;99.90;;;;;;5050955;28;20229;-88
2022/10/19 02:57:21;;;;;;;12.07;5.80;;;10.40;99.90;;;;;;5050072;28;20281;-88
2022/10/19 02:59:48;;;;;;;9.50;4.37;;;10.40;99.90;;;;;;5049914;28;20668;-89
2022/10/19 03:02:16;;;;;;;7.13;4.53;;;10.40;99.90;;;;;;5050830;28;20560;-87
2022/10/19 03:04:43;;;;;;;8.57;4.50;;;10.30;99.90;;;;;;5051986;28;20226;-86
2022/10/19 03:07:11;;;;;;;10.30;5.20;;;10.30;99.90;;;;;;5051087;28;20756;-88
2022/10/19 03:09:39;;;;;;;12.20;5.33;;;10.30;99.90;;;;;;5051169;28;20209;-87
2022/10/19 03:12:06;;;;;;;10.07;5.10;;;10.30;99.90;;;;;;5051329;28;20210;-88
2022/10/19 03:14:33;;;;;;;9.50;5.23;;;10.30;99.90;;;;;;5053773;28;20237;-87
2022/10/19 03:16:59;;;;;;;11.60;5.00;;;10.30;99.90;;;;;;5055609;28;20203;-87
2022/10/19 03:19:26;;;;;;;11.83;5.47;;;10.40;99.90;;;;;;5055184;28;20214;-88
2022/10/19 03:21:53;;;;;;;13.70;5.63;;;10.50;99.90;;;;;;5055622;28;20672;-88
2022/10/19 03:24:20;;;;;;;11.83;5.47;;;10.40;99.90;;;;;;5055541;28;20223;-89
2022/10/19 03:26:48;;;;;;;14.60;5.47;;;10.50;99.90;;;;;;5055457;28;20233;-87
2022/10/19 03:29:15;;;;;;;10.00;5.27;;;10.50;99.90;;;;;;5055386;28;20203;-88
2022/10/19 03:31:42;;;;;;;10.33;5.70;;;10.50;99.90;;;;;;5055692;28;20210;-87
2022/10/19 03:34:09;;;;;;;12.53;6.63;;;10.50;99.90;;;;;;5055022;28;20739;-88
2022/10/19 03:36:37;;;;;;;9.20;4.10;;;10.40;99.90;;;;;;5055025;28;20238;-87
2022/10/19 03:39:05;;;;;;;9.83;5.03;;;10.40;99.90;;;;;;5055206;28;20207;-87
2022/10/19 03:41:34;;;;;;;9.47;4.27;;;10.40;99.90;;;;;;5055133;28;20198;-88
2022/10/19 03:44:03;;;;;;;7.13;3.87;;;10.50;99.90;;;;;;5055154;28;20222;-88
2022/10/19 03:46:30;;;;;;;9.43;4.97;;;10.50;99.90;;;;;;5055047;28;20195;-89
2022/10/19 03:48:57;;;;;;;9.63;4.20;;;10.50;99.90;;;;;;5054750;28;20577;-88
2022/10/19 03:51:26;;;;;;;6.43;3.60;;;10.40;99.90;;;;;;5055136;28;20195;-88
2022/10/19 03:53:54;;;;;;;8.57;4.03;;;10.60;99.90;;;;;;5055391;28;20656;-89
2022/10/19 03:56:22;;;;;;;6.63;3.87;;;10.40;99.90;;;;;;5055082;28;20234;-87
2022/10/19 03:58:50;;;;;;;7.77;3.60;;;10.40;99.90;;;;;;5055025;28;20207;-87
2022/10/19 04:01:21;;;;;;;6.50;3.90;;;10.40;99.90;;;;;;5054716;28;20214;-88
2022/10/19 04:03:48;;;;;;;9.80;3.50;;;10.60;99.90;;;;;;5054839;28;20241;-86
2022/10/19 04:06:16;;;;;;;7.03;3.40;;;10.40;99.90;;;;;;5054566;28;20727;-86
2022/10/19 04:08:43;;;;;;;8.20;3.03;;;10.40;99.90;;;;;;5054687;28;20583;-87
2022/10/19 04:11:14;;;;;;;8.80;3.57;;;10.50;99.90;;;;;;5054676;28;20552;-86
2022/10/19 04:13:41;;;;;;;8.53;3.97;;;10.60;99.90;;;;;;5054739;28;20607;-86
2022/10/19 04:16:09;;;;;;;7.63;3.90;;;10.60;99.90;;;;;;5054000;28;20230;-86
2022/10/19 04:18:37;;;;;;;9.33;4.23;;;10.60;99.90;;;;;;5052812;28;20675;-86
2022/10/19 04:21:06;;;;;;;10.10;4.37;;;10.50;99.90;;;;;;5053743;28;20548;-87
2022/10/19 04:23:34;;;;;;;8.50;3.23;;;10.60;99.90;;;;;;5054453;28;20258;-86
2022/10/19 04:26:03;;;;;;;11.03;3.73;;;10.50;99.90;;;;;;5056636;28;20194;-86
2022/10/19 04:28:30;;;;;;;7.73;4.00;;;10.60;99.90;;;;;;5040271;28;20203;-86
2022/10/19 04:30:57;;;;;;;6.80;3.63;;;10.60;99.90;;;;;;5052974;28;20592;-87
2022/10/19 04:33:24;;;;;;;7.87;4.07;;;10.60;99.90;;;;;;5052142;28;20481;-86
2022/10/19 04:35:58;;;;;;;8.23;4.43;;;10.60;99.90;;;;;;5051063;28;20219;-87
2022/10/19 04:38:24;;;;;;;9.00;4.00;;;10.60;99.90;;;;;;5050536;28;20195;-86
2022/10/19 04:40:51;;;;;;;7.77;3.30;;;10.80;99.90;;;;;;5053792;28;20206;-86
2022/10/19 04:43:18;;;;;;;7.13;3.70;;;10.60;99.90;;;;;;5038750;28;20207;-86
2022/10/19 04:45:45;;;;;;;10.90;4.43;;;10.60;99.90;;;;;;5033258;28;20199;-86
2022/10/19 04:48:11;;;;;;;8.20;3.57;;;10.70;99.90;;;;;;5034069;28;20210;-86
2022/10/19 04:50:38;;;;;;;8.77;4.00;;;10.70;99.90;;;;;;5033280;28;20227;-86
2022/10/19 04:53:06;;;;;;;10.47;4.27;;;10.70;99.90;;;;;;5033241;28;20600;-86
2022/10/19 04:55:33;;;;;;;12.43;4.20;;;10.70;99.90;;;;;;5033530;28;20223;-87
2022/10/19 04:58:00;;;;;;;8.23;4.53;;;10.60;99.90;;;;;;5033203;28;20681;-86
2022/10/19 05:00:26;;;;;;;10.17;4.50;;;10.70;99.90;;;;;;5032878;28;20216;-86
2022/10/19 05:02:53;;;;;;;8.43;4.47;;;10.70;99.90;;;;;;5033810;28;20434;-87
2022/10/19 05:05:20;;;;;;;8.20;4.10;;;10.70;99.90;;;;;;5032653;28;20220;-87
2022/10/19 05:07:49;;;;;;;10.80;4.70;;;10.70;99.90;;;;;;5049495;28;20199;-87
2022/10/19 05:10:17;;;;;;;7.13;4.00;;;10.90;99.90;;;;;;5053122;28;20967;-86
2022/10/19 05:12:44;;;;;;;7.53;3.90;;;10.70;99.90;;;;;;5046170;28;20211;-86
2022/10/19 05:15:11;;;;;;;10.60;4.60;;;10.70;99.90;;;;;;5051911;28;20234;-87
2022/10/19 05:17:37;;;;;;;11.80;4.17;;;10.70;99.90;;;;;;5052297;28;20582;-86
2022/10/19 05:20:05;;;;;;;8.60;4.23;;;10.70;99.90;;;;;;5047235;28;20223;-86
2022/10/19 05:22:32;;;;;;;10.87;4.73;;;10.70;99.90;;;;;;5033028;28;20218;-86
2022/10/19 05:24:58;;;;;;;8.93;4.60;;;10.90;99.90;;;;;;5033528;28;20239;-86
2022/10/19 05:27:27;;;;;;;15.23;4.50;;;10.70;99.90;;;;;;5033713;28;20200;-87
2022/10/19 05:29:54;;;;;;;9.97;4.27;;;10.60;99.90;;;;;;5032154;28;20223;-86
2022/10/19 05:32:20;;;;;;;12.00;4.60;;;10.60;99.90;;;;;;5032651;28;20696;-87
2022/10/19 05:34:47;;;;;;;8.77;4.80;;;10.60;99.90;;;;;;5032308;28;20265;-86
2022/10/19 05:37:15;;;;;;;9.23;4.23;;;10.60;99.90;;;;;;5032260;28;20239;-86
2022/10/19 05:39:42;;;;;;;9.70;4.13;;;10.60;99.90;;;;;;5033214;28;20212;-87
2022/10/19 05:42:08;;;;;;;8.53;4.67;;;10.70;99.90;;;;;;5032201;28;20210;-87
2022/10/19 05:44:37;;;;;;;9.53;4.70;;;10.70;99.90;;;;;;5033090;28;20232;-87
2022/10/19 05:47:03;;;;;;;4.33;3.70;;;10.80;99.90;;;;;;5032753;28;20341;-86
2022/10/19 05:49:30;;;;;;;9.30;4.47;;;10.70;99.90;;;;;;5032585;28;20594;-86
2022/10/19 05:51:57;;;;;;;12.07;4.53;;;10.80;99.90;;;;;;5032454;28;20223;-86
2022/10/19 05:54:24;;;;;;;10.77;4.30;;;10.70;99.90;;;;;;5052266;28;20234;-87
2022/10/19 05:56:50;;;;;;;7.33;4.07;;;10.70;99.90;;;;;;5050726;28;20218;-87
2022/10/19 05:59:19;;;;;;;8.63;4.40;;;10.60;99.90;;;;;;5050342;28;20210;-87
2022/10/19 06:01:48;;;;;;;12.87;4.60;;;10.60;99.90;;;;;;5052369;28;20199;-86
2022/10/19 06:04:15;;;;;;;8.50;4.10;;;10.60;99.90;;;;;;5034990;28;20232;-87
2022/10/19 06:06:42;;;;;;;9.10;4.63;;;10.60;99.90;;;;;;5032623;28;20584;-87
2022/10/19 06:09:10;;;;;;;10.30;4.80;;;10.70;99.90;;;;;;5032730;28;20578;-87
2022/10/19 06:11:38;;;;;;;11.30;4.30;;;10.70;99.90;;;;;;5032202;28;20224;-86
2022/10/19 06:14:07;;;;;;;8.87;4.70;;;10.70;99.90;;;;;;5032510;28;20700;-87
2022/10/19 06:16:34;;;;;;;9.23;4.40;;;10.70;99.90;;;;;;5032422;28;20223;-87
2022/10/19 06:19:04;;;;;;;7.50;3.93;;;10.80;99.90;;;;;;5032838;28;20216;-87
2022/10/19 06:21:32;;;;;;;13.93;5.73;;;10.80;99.90;;;;;;5032455;28;20511;-87
2022/10/19 06:24:02;;;;;;;9.40;4.23;;;10.80;99.90;;;;;;5031974;28;20731;-87
2022/10/19 06:26:30;;;;;;;9.90;4.27;;;10.80;99.90;;;;;;5032021;28;20254;-86
2022/10/19 06:28:59;;;;;;;6.70;4.60;;;10.80;99.90;;;;;;5042136;28;20206;-86
2022/10/19 06:31:26;;;;;;;8.33;4.13;;;10.90;99.90;;;;;;5042275;28;20257;-86
2022/10/19 06:33:53;;;;;;;9.37;4.10;;;10.90;99.90;;;;;;5043389;28;20211;-86
2022/10/19 06:36:23;;;;;;;9.37;3.97;;;10.90;99.90;;;;;;5041625;28;20222;-87
2022/10/19 06:38:51;;;;;;;9.93;4.23;;;11.00;99.90;;;;;;5047920;28;20210;-86
2022/10/19 06:41:19;;;;;;;6.57;4.07;;;11.10;99.90;;;;;;5050264;28;20199;-87
2022/10/19 06:43:49;;;;;;;12.23;4.77;;;11.00;99.90;;;;;;5043795;28;20230;-87
2022/10/19 06:46:19;;;;;;;10.10;4.03;;;11.00;99.90;;;;;;5051963;28;20199;-86
2022/10/19 06:48:49;;;;;;;10.97;4.07;;;11.20;99.90;;;;;;5039520;28;20615;-87
2022/10/19 06:51:16;;;;;;;8.40;4.60;;;11.20;99.90;;;;;;5032029;28;20581;-86
2022/10/19 06:53:44;;;;;;;7.47;4.20;;;11.00;99.90;;;;;;5031858;28;20223;-86
2022/10/19 06:56:11;;;;;;;8.67;4.23;;;11.00;99.90;;;;;;5030472;28;20223;-86
2022/10/19 06:58:39;;;;;;;7.97;4.20;;;11.10;99.90;;;;;;5031280;28;20683;-86
2022/10/19 07:01:07;;;;;;;10.70;4.37;;;11.10;99.90;;;;;;5031990;28;20210;-87
2022/10/19 07:03:35;;;;;;;7.13;4.00;;;11.10;99.90;;;;;;5030610;28;20253;-87
2022/10/19 07:06:04;;;;;;;10.80;5.33;;;11.10;99.90;;;;;;5031476;28;20601;-86
2022/10/19 07:08:31;;;;;;;9.77;4.37;;;11.30;99.90;;;;;;5032012;28;20218;-87
2022/10/19 07:11:01;;;;;;;10.47;4.37;;;11.30;99.90;;;;;;5030455;28;20653;-87
2022/10/19 07:13:29;;;;;;;12.97;5.00;;;11.30;99.90;;;;;;5032019;28;20215;-85
2022/10/19 07:16:01;;;;;;;7.37;4.40;;;11.30;99.90;;;;;;5031307;28;20227;-83
2022/10/19 07:18:28;;;;;;;9.40;4.00;;;11.30;99.90;;;;;;5031679;28;20214;-86
2022/10/19 07:20:56;;;;;;;8.23;4.23;;;11.40;99.90;;;;;;5030783;28;20219;-86
2022/10/19 07:23:24;;;;;;;8.57;3.97;;;11.50;99.90;;;;;;5051370;28;20202;-86
2022/10/19 07:25:52;;;;;;;8.03;3.77;;;11.60;99.90;;;;;;5050604;28;20203;-87
2022/10/19 07:28:21;;;;;;;9.33;3.63;;;11.60;99.90;;;;;;5049388;28;20218;-85
2022/10/19 07:30:48;;;;;;;10.03;4.17;;;11.70;99.90;;;;;;5051273;28;20577;-85
2022/10/19 07:33:15;;;;;;;14.40;5.03;;;11.80;99.90;;;;;;5040424;28;20661;-85
2022/10/19 07:35:42;;;;;;;8.97;4.57;;;11.80;99.90;;;;;;5031777;28;20206;-85
2022/10/19 07:38:08;;;;;;;11.13;3.63;;;11.80;99.90;;;;;;5031189;28;20576;-87
2022/10/19 07:40:35;;;;;;;8.30;3.90;;;12.00;99.90;;;;;;5031888;28;20216;-84
2022/10/19 07:43:02;;;;;;;10.50;4.53;;;11.90;99.90;;;;;;5030212;28;20211;-84
2022/10/19 07:45:32;;;;;;;9.40;3.63;;;12.00;99.90;;;;;;5031844;28;20238;-85
2022/10/19 07:47:59;;;;;;;7.10;3.80;;;12.00;99.90;;;;;;5031821;28;20207;-84
2022/10/19 07:50:26;;;;;;;10.63;3.53;;;12.10;99.90;;;;;;5031159;28;20204;-84
2022/10/19 07:52:53;;;;;;;10.27;3.47;;;12.20;99.90;;;;;;5031585;28;20262;-84
2022/10/19 07:55:20;;;;;;;7.53;3.50;;;12.30;99.90;;;;;;5030954;28;20606;-85
2022/10/19 07:57:48;;;;;;;8.97;3.17;;;12.40;99.90;;;;;;5030765;28;20242;-87
2022/10/19 08:00:15;;;;;;;5.00;2.20;;;12.40;99.90;;;;;;5033497;28;20195;-87
2022/10/19 08:02:43;;;;;;;6.63;2.00;;;12.40;99.90;;;;;;5034669;28;20207;-87
2022/10/19 08:05:10;;;;;;;9.07;1.70;;;12.50;99.90;;;;;;5035059;28;20246;-86
2022/10/19 08:07:37;;;;;;;6.93;2.07;;;12.40;99.90;;;;;;5042236;28;20252;-88
2022/10/19 08:10:04;;;;;;;4.80;1.70;;;12.20;99.90;;;;;;5043331;28;20207;-85
2022/10/19 08:12:31;;;;;;;5.30;1.50;;;12.30;99.90;;;;;;5034710;28;20211;-84
2022/10/19 08:14:58;;;;;;;5.97;1.40;;;12.40;99.90;;;;;;5034833;28;20216;-84
2022/10/19 08:17:24;;;;;;;8.57;3.03;;;12.50;99.90;;;;;;5034045;28;20224;-86
2022/10/19 08:19:52;;;;;;;5.97;2.10;;;12.40;99.90;;;;;;5034483;28;20207;-86
2022/10/19 08:22:19;;;;;;;6.73;1.10;;;12.50;99.90;;;;;;5034849;28;20219;-86
2022/10/19 08:24:46;;;;;;;3.83;1.03;;;12.50;99.90;;;;;;5034427;28;20224;-84
2022/10/19 08:27:13;;;;;;;8.33;1.50;;;12.50;1.00;;;;;;5034836;28;20200;-84
2022/10/19 08:29:40;;;;;;;6.07;1.30;;;12.50;1.00;;;;;;5034725;28;20298;-85
2022/10/19 08:32:07;;;;;;;8.83;1.70;;;12.60;1.00;;;;;;5033414;28;20204;-87
2022/10/19 08:34:34;;;;;;;4.23;1.13;;;12.60;99.90;;;;;;5034487;28;20281;-87
2022/10/19 08:37:03;;;;;;;4.53;1.20;;;12.60;1.00;;;;;;5034163;28;20224;-86
2022/10/19 08:39:30;;;;;;;7.47;1.40;;;12.70;51.90;;;;;;5034389;28;20215;-86
2022/10/19 08:42:02;;;;;;;8.33;1.47;;;12.50;99.90;;;;;;5034529;28;20212;-86
2022/10/19 08:45:02;;;;;;;5.53;1.37;;;12.50;74.40;;;;;;5035677;28;20218;-87
2022/10/19 08:47:42;;;;;;;6.97;1.23;;;12.60;13.00;;;;;;5043130;28;20211;-87
2022/10/19 08:50:18;;;;;;;6.37;1.37;;;12.80;24.50;;;;;;5054414;28;20202;-87
2022/10/19 08:52:50;;;;;;;8.83;1.40;;;12.80;1.00;;;;;;5053925;28;20214;-87
2022/10/19 08:55:23;;;;;;;4.20;1.37;;;13.00;1.00;;;;;;5054042;28;20230;-87
2022/10/19 08:57:57;;;;;;;4.43;1.60;;;13.30;39.80;;;;;;5052652;28;20222;-88
2022/10/19 09:00:32;;;;;;;4.17;1.10;;;13.40;99.90;;;;;;5052759;28;20232;-87
2022/10/19 09:03:05;;;;;;;4.00;1.30;;;13.20;99.90;;;;;;5052251;28;20751;-87
2022/10/19 09:05:40;;;;;;;6.10;1.13;;;12.90;99.90;;;;;;5054051;28;20222;-87
2022/10/19 09:08:10;;;;;;;4.93;1.27;;;12.80;99.90;;;;;;5054105;28;20205;-87
2022/10/19 09:10:41;;;;;;;4.30;1.10;;;12.80;6.90;;;;;;5052688;28;20203;-87
2022/10/19 09:13:16;;;;;;;3.17;1.13;;;12.80;99.90;;;;;;5053581;28;20207;-87
2022/10/19 09:15:45;;;;;;;5.77;1.17;;;12.80;1.00;;;;;;5053866;28;20199;-87
2022/10/19 09:18:18;;;;;;;7.80;2.27;;;12.70;1.00;;;;;;5054002;28;20234;-87
2022/10/19 09:20:49;;;;;;;5.67;1.30;;;12.70;1.00;;;;;;5053569;28;20743;-87
2022/10/19 09:23:26;;;;;;;6.53;1.47;;;12.90;99.90;;;;;;5053990;28;20706;-87
2022/10/19 09:25:53;;;;;;;6.03;1.03;;;12.90;99.90;;;;;;5053642;28;20651;-87
2022/10/19 09:28:40;;;;;;;6.90;1.60;;;12.80;99.90;;;;;;5053566;28;20203;-87
2022/10/19 09:31:10;;;;;;;7.23;1.33;;;12.80;1.00;;;;;;5054209;28;20214;-87
2022/10/19 09:33:39;;;;;;;8.33;1.20;;;12.80;99.90;;;;;;5053436;28;20230;-87
2022/10/19 09:36:07;;;;;;;8.37;1.13;;;12.70;99.90;;;;;;5053489;28;20191;-87
2022/10/19 09:38:35;;;;;;;7.67;1.50;;;13.10;99.90;;;;;;5053953;28;20482;-87
2022/10/19 09:41:15;;;;;;;4.67;1.17;;;13.20;1.00;;;;;;5053784;28;20536;-85
2022/10/19 09:43:49;;;;;;;5.80;1.40;;;13.50;1.00;;;;;;5054086;28;20594;-86
2022/10/19 09:46:27;;;;;;;4.67;1.40;;;13.40;1.00;;;;;;5053979;28;20207;-85
2022/10/19 09:48:54;;;;;;;4.07;1.07;;;13.50;1.00;;;;;;5053743;28;20671;-85
2022/10/19 09:51:21;;;;;;;7.20;1.37;;;13.50;1.00;;;;;;5053500;28;20205;-86
2022/10/19 09:53:52;;;;;;;7.33;1.40;;;13.50;1.00;;;;;;5053688;28;20215;-85
2022/10/19 09:56:21;;;;;;;12.67;1.47;;;13.70;1.00;;;;;;5053679;28;20211;-85
2022/10/19 09:58:49;;;;;;;5.07;1.67;;;13.70;1.00;;;;;;5053027;28;20223;-85
2022/10/19 10:01:31;;;;;;;3.77;0.87;;;13.70;1.00;;;;;;5052494;28;20221;-85
2022/10/19 10:04:05;;;;;;;4.50;1.27;;;13.50;99.90;;;;;;5053416;28;20485;-85
2022/10/19 10:06:33;;;;;;;3.63;1.10;;;13.70;1.00;;;;;;5053363;28;20214;-86
2022/10/19 10:09:02;;;;;;;4.63;1.30;;;13.30;1.00;;;;;;5052952;28;20211;-85
2022/10/19 10:11:31;;;;;;;5.53;1.57;;;13.50;1.00;;;;;;5052766;28;20264;-85
2022/10/19 10:14:04;;;;;;;4.43;1.17;;;13.30;99.90;;;;;;5052702;28;20230;-85
2022/10/19 10:16:35;;;;;;;6.23;1.80;;;13.20;1.00;;;;;;5052915;28;20211;-85
2022/10/19 10:19:05;;;;;;;5.00;1.37;;;13.10;1.00;;;;;;5052760;28;20195;-85
2022/10/19 10:21:35;;;;;;;6.00;1.70;;;13.20;1.00;;;;;;5052745;28;20213;-85
2022/10/19 10:24:06;;;;;;;6.53;1.80;;;13.30;1.00;;;;;;5052737;28;20317;-86
2022/10/19 10:26:38;;;;;;;3.00;1.30;;;13.40;1.00;;;;;;5053447;28;20214;-86
2022/10/19 10:29:17;;;;;;;5.13;1.10;;;14.10;99.90;;;;;;5053312;28;20222;-86
2022/10/19 10:31:45;;;;;;;1.17;0.97;;;14.90;1.00;;;;;;5052818;28;20561;-85
2022/10/19 10:34:19;;;;;;;3.93;1.07;;;14.90;1.00;;;;;;5051191;28;20254;-86
2022/10/19 10:36:51;;;;;;;4.00;1.50;;;14.50;1.00;;;;;;5052070;28;20199;-86
2022/10/19 10:39:19;;;;;;;4.60;1.47;;;14.40;1.00;;;;;;5052669;28;20804;-85
2022/10/19 10:41:48;;;;;;;4.20;1.27;;;14.20;99.90;;;;;;5050619;28;20197;-86
2022/10/19 10:44:21;;;;;;;3.53;1.67;;;13.80;1.00;;;;;;5036335;28;20223;-85
2022/10/19 10:46:53;;;;;;;5.60;1.87;;;13.70;99.90;;;;;;5045128;28;20381;-85
2022/10/19 10:49:23;;;;;;;7.23;1.50;;;13.50;99.90;;;;;;5039769;28;20601;-85
2022/10/19 10:51:54;;;;;;;4.73;1.37;;;13.50;1.00;;;;;;5044590;28;20195;-85
2022/10/19 10:54:25;;;;;;;7.57;2.30;;;13.50;99.90;;;;;;5039589;28;20726;-86
2022/10/19 10:57:15;;;;;;;3.73;1.33;;;13.70;99.90;;;;;;5040758;28;20591;-85
2022/10/19 10:59:50;;;;;;;3.53;1.50;;;13.70;99.90;;;;;;5039977;28;20200;-85
2022/10/19 11:02:31;;;;;;;6.30;1.60;;;13.70;99.90;;;;;;5047821;28;20233;-86
2022/10/19 11:05:04;;;;;;;3.73;1.20;;;13.90;15.80;;;;;;5044343;28;20231;-85
2022/10/19 11:07:34;;;;;;;8.43;2.07;;;13.60;19.50;;;;;;5032628;28;20219;-85
2022/10/19 11:10:08;;;;;;;5.60;1.93;;;13.50;1.00;;;;;;5031886;28;20222;-85
2022/10/19 11:12:39;;;;;;;1.93;1.10;;;13.30;99.90;;;;;;5031005;28;20214;-85
2022/10/19 11:15:16;;;;;;;6.17;2.30;;;13.50;9.80;;;;;;5032206;28;20223;-87
2022/10/19 11:17:55;;;;;;;5.03;1.70;;;13.50;1.00;;;;;;5032058;28;20215;-85
2022/10/19 11:20:25;;;;;;;3.17;1.90;;;13.50;1.00;;;;;;5032235;28;20211;-86
2022/10/19 11:23:01;;;;;;;4.57;1.70;;;13.50;99.90;;;;;;5032274;28;20199;-85
2022/10/19 11:25:41;;;;;;;7.30;2.20;;;13.50;99.90;;;;;;5049203;28;20222;-86
2022/10/19 11:28:26;;;;;;;4.17;1.80;;;13.40;1.00;;;;;;5047502;28;20202;-85
2022/10/19 11:31:00;;;;;;;5.07;2.37;;;13.30;99.90;;;;;;5031529;28;20211;-85
2022/10/19 11:33:39;;;;;;;4.80;2.50;;;13.50;1.00;;;;;;5032062;28;20202;-85
2022/10/19 11:36:15;;;;;;;6.03;2.20;;;13.50;1.00;;;;;;5036462;28;20211;-86
2022/10/19 11:38:53;;;;;;;4.73;1.90;;;13.60;1.00;;;;;;5035879;28;20235;-85
2022/10/19 11:41:30;;;;;;;5.20;1.93;;;13.40;1.00;;;;;;5034368;28;20221;-85
2022/10/19 11:44:25;;;;;;;6.57;2.30;;;13.40;1.00;;;;;;5036106;28;20615;-85
2022/10/19 11:47:04;;;;;;;6.53;1.90;;;13.50;1.00;;;;;;5028924;28;20692;-85
2022/10/19 11:49:48;;;;;;;4.17;2.10;;;13.50;33.00;;;;;;5035797;28;20219;-86
2022/10/19 11:52:18;;;;;;;5.30;2.43;;;13.80;99.90;;;;;;5035584;28;20204;-87
2022/10/19 11:54:59;;;;;;;7.03;2.30;;;13.80;99.90;;;;;;5035171;28;20231;-85
2022/10/19 11:57:32;;;;;;;5.67;2.17;;;13.70;1.00;;;;;;5034638;28;20580;-85
2022/10/19 12:00:06;;;;;;;7.77;2.30;;;13.80;1.00;;;;;;5053208;28;20294;-86
2022/10/19 12:03:17;;;;;;;5.97;2.33;;;14.00;1.00;;;;;;5055662;28;20203;-86
2022/10/19 12:06:03;;;;;;;8.33;2.20;;;13.80;1.00;;;;;;5039279;28;20714;-85
2022/10/19 12:08:45;;;;;;;6.37;2.20;;;13.70;99.80;;;;;;5050409;28;20212;-85
2022/10/19 12:11:27;;;;;;;6.40;2.63;;;13.80;99.90;;;;;;5036072;28;20215;-86
2022/10/19 12:13:59;;;;;;;7.23;2.80;;;13.80;1.00;;;;;;5035380;28;20273;-85
2022/10/19 12:16:33;;;;;;;5.40;2.53;;;13.70;1.00;;;;;;5035626;28;20211;-85
2022/10/19 12:19:03;;;;;;;5.27;2.40;;;13.60;99.90;;;;;;5037096;28;20227;-85
2022/10/19 12:21:33;;;;;;;9.50;2.37;;;13.80;99.90;;;;;;5056907;28;20195;-85
2022/10/19 12:24:04;;;;;;;6.80;2.70;;;13.90;1.00;;;;;;5055169;28;20226;-86
2022/10/19 12:26:35;;;;;;;6.07;2.33;;;13.90;94.50;;;;;;5053827;28;20211;-85
2022/10/19 12:29:06;;;;;;;5.53;2.37;;;13.80;50.40;;;;;;5053503;28;20203;-86
2022/10/19 12:31:35;;;;;;;6.60;2.43;;;13.60;1.00;;;;;;5040788;28;20218;-85
2022/10/19 12:34:09;;;;;;;4.43;2.60;;;13.60;99.90;;;;;;5034639;28;20232;-86
2022/10/19 12:36:45;;;;;;;6.37;2.30;;;13.70;99.90;;;;;;5037229;28;20207;-85
2022/10/19 12:39:21;;;;;;;6.40;3.03;;;13.70;1.00;;;;;;5033955;28;20237;-86
2022/10/19 12:41:57;;;;;;;9.80;2.97;;;13.80;99.90;;;;;;5041156;28;20665;-86
2022/10/19 12:44:43;;;;;;;6.33;2.80;;;13.60;99.90;;;;;;5047838;28;20313;-85
2022/10/19 12:47:12;;;;;;;9.30;2.97;;;13.70;1.00;;;;;;5042969;28;20214;-85
2022/10/19 12:49:47;;;;;;;7.13;2.30;;;14.10;1.00;;;;;;5042798;28;20568;-86
2022/10/19 12:52:16;;;;;;;4.10;2.10;;;14.20;1.00;;;;;;5049151;28;20210;-85
2022/10/19 12:54:44;;;;;;;6.33;2.27;;;13.80;1.00;;;;;;5043669;28;20222;-86
2022/10/19 12:57:29;;;;;;;7.10;2.53;;;13.80;1.00;;;;;;5051624;28;20206;-85
2022/10/19 13:00:04;;;;;;;6.23;2.33;;;13.70;99.90;;;;;;5041922;28;20211;-85
2022/10/19 13:02:33;;;;;;;5.27;2.20;;;13.60;1.00;;;;;;5047463;28;20207;-85